Time;durP1;ratioP1;P1;durP2;ratioP2;P2;SDS_P1;SDS_P2;PMS_P1;PMS_P2;Temp;Humidity;BMP_temperature;BMP_pressure;BME280_temperature;BME280_humidity;BME280_pressure;Samples;Min_cycle;Max_cycle;Signal;HPM_P1;HPM_P2
2022/07/21 00:01:06;;;;;;;2.50;1.07;;;18.70;99.90;;;;;;5076177;28;20963;-82
2022/07/21 00:03:32;;;;;;;3.70;1.27;;;18.70;99.90;;;;;;5076149;28;20445;-83
2022/07/21 00:05:59;;;;;;;1.70;1.20;;;18.70;99.90;;;;;;5076090;28;20962;-83
2022/07/21 00:08:27;;;;;;;1.77;1.20;;;18.70;99.90;;;;;;5075953;28;21005;-82
2022/07/21 00:10:54;;;;;;;2.47;1.37;;;18.70;99.90;;;;;;5076224;28;20507;-82
2022/07/21 00:13:21;;;;;;;2.63;1.50;;;18.60;99.90;;;;;;5076246;28;20456;-83
2022/07/21 00:15:48;;;;;;;1.10;0.83;;;18.60;99.90;;;;;;5076498;28;20455;-83
2022/07/21 00:18:15;;;;;;;1.77;1.20;;;18.60;99.90;;;;;;5075966;28;20473;-82
2022/07/21 00:20:42;;;;;;;1.90;1.70;;;18.50;99.90;;;;;;5076523;28;20449;-83
2022/07/21 00:23:09;;;;;;;1.40;1.13;;;18.50;99.90;;;;;;5076111;28;20811;-83
2022/07/21 00:25:37;;;;;;;1.50;1.03;;;18.50;99.90;;;;;;5075766;28;20453;-82
2022/07/21 00:28:04;;;;;;;2.93;1.40;;;18.50;99.90;;;;;;5075950;28;20468;-83
2022/07/21 00:30:32;;;;;;;1.60;1.40;;;18.50;99.90;;;;;;5075865;28;20491;-83
2022/07/21 00:32:59;;;;;;;2.47;1.47;;;18.50;99.90;;;;;;5075644;28;20429;-83
2022/07/21 00:35:26;;;;;;;2.00;1.20;;;18.60;99.90;;;;;;5075800;28;20912;-83
2022/07/21 00:37:52;;;;;;;2.40;1.07;;;18.60;99.90;;;;;;5075300;28;20480;-82
2022/07/21 00:40:19;;;;;;;2.70;1.17;;;18.60;99.90;;;;;;5075776;28;20452;-83
2022/07/21 00:42:47;;;;;;;3.13;1.67;;;18.60;99.90;;;;;;5075745;28;20449;-83
2022/07/21 00:45:14;;;;;;;4.67;2.07;;;18.60;99.90;;;;;;5075668;28;20448;-83
2022/07/21 00:47:41;;;;;;;2.40;1.40;;;18.60;99.90;;;;;;5075339;28;20945;-82
2022/07/21 00:50:10;;;;;;;1.53;1.20;;;18.60;99.90;;;;;;5075523;28;20484;-83
2022/07/21 00:52:37;;;;;;;1.87;1.40;;;18.60;99.90;;;;;;5074653;28;20449;-83
2022/07/21 00:55:06;;;;;;;1.77;1.00;;;18.60;99.90;;;;;;5075311;28;20939;-83
2022/07/21 00:57:32;;;;;;;1.73;0.83;;;18.60;99.90;;;;;;5075459;28;20471;-83
2022/07/21 01:00:01;;;;;;;2.23;1.70;;;18.60;99.90;;;;;;5075121;28;20547;-83
2022/07/21 01:02:28;;;;;;;1.10;1.00;;;18.60;99.90;;;;;;5075412;28;20445;-83
2022/07/21 01:04:55;;;;;;;3.47;1.37;;;18.60;99.90;;;;;;5075260;28;20533;-82
2022/07/21 01:07:22;;;;;;;0.80;0.80;;;18.50;99.90;;;;;;5075250;28;20452;-83
2022/07/21 01:09:49;;;;;;;3.50;1.70;;;18.50;99.90;;;;;;5074879;28;20473;-83
2022/07/21 01:12:16;;;;;;;11.93;1.20;;;18.50;99.90;;;;;;5075166;28;20468;-83
2022/07/21 01:14:42;;;;;;;2.50;1.23;;;18.50;99.90;;;;;;5074843;28;20456;-82
2022/07/21 01:17:11;;;;;;;2.00;1.30;;;18.50;99.90;;;;;;5074815;28;20459;-83
2022/07/21 01:19:38;;;;;;;1.23;1.00;;;18.50;99.90;;;;;;5074985;28;20484;-83
2022/07/21 01:22:06;;;;;;;1.37;0.83;;;18.50;99.90;;;;;;5074715;28;20913;-83
2022/07/21 01:24:33;;;;;;;1.63;1.30;;;18.50;99.90;;;;;;5074939;28;20463;-82
2022/07/21 01:27:00;;;;;;;2.10;1.10;;;18.50;99.90;;;;;;5074910;28;20451;-82
2022/07/21 01:29:27;;;;;;;3.13;1.43;;;18.50;99.90;;;;;;5074741;28;20484;-82
2022/07/21 01:31:53;;;;;;;3.77;1.43;;;18.40;99.90;;;;;;5074695;28;20491;-82
2022/07/21 01:34:20;;;;;;;2.03;1.30;;;18.40;99.90;;;;;;5074755;28;20441;-82
2022/07/21 01:36:47;;;;;;;0.83;0.83;;;18.40;99.90;;;;;;5074646;28;20448;-82
2022/07/21 01:42:01;;;;;;;1.93;1.40;;;18.50;99.90;;;;;;5074673;28;20900;-82
2022/07/21 01:44:28;;;;;;;1.90;1.53;;;18.50;99.90;;;;;;5074548;28;20456;-84
2022/07/21 01:46:55;;;;;;;1.73;1.20;;;18.40;99.90;;;;;;5074262;28;20433;-83
2022/07/21 01:49:22;;;;;;;6.83;1.37;;;18.50;99.90;;;;;;5074146;28;20452;-82
2022/07/21 01:51:49;;;;;;;1.93;0.90;;;18.50;99.90;;;;;;5074284;28;20481;-82
2022/07/21 01:54:18;;;;;;;1.30;1.20;;;18.40;99.90;;;;;;5074034;28;20951;-81
2022/07/21 01:56:45;;;;;;;0.93;0.90;;;18.40;99.90;;;;;;5074340;28;20452;-81
2022/07/21 01:59:12;;;;;;;1.30;1.20;;;18.40;99.90;;;;;;5073921;28;20526;-81
2022/07/21 02:01:39;;;;;;;1.20;1.10;;;18.30;99.90;;;;;;5074234;28;20437;-81
2022/07/21 02:04:06;;;;;;;1.93;0.97;;;18.30;99.90;;;;;;5073841;28;20817;-81
2022/07/21 02:06:33;;;;;;;1.70;1.60;;;18.30;99.90;;;;;;5074111;28;20826;-81
2022/07/21 02:09:00;;;;;;;1.83;1.73;;;18.30;99.90;;;;;;5073679;28;21014;-81
2022/07/21 02:11:28;;;;;;;1.23;0.93;;;18.30;99.90;;;;;;5073957;28;20473;-81
2022/07/21 02:13:55;;;;;;;2.60;1.10;;;18.30;99.90;;;;;;5074006;28;20445;-80
2022/07/21 02:16:22;;;;;;;1.80;1.10;;;18.30;99.90;;;;;;5073974;28;20801;-80
2022/07/21 02:18:49;;;;;;;1.00;0.90;;;18.30;99.90;;;;;;5073849;28;20480;-80
2022/07/21 02:21:15;;;;;;;1.97;1.77;;;18.20;99.90;;;;;;5073888;28;20441;-80
2022/07/21 02:23:42;;;;;;;1.87;1.17;;;18.20;99.90;;;;;;5073818;28;20451;-80
2022/07/21 02:26:09;;;;;;;1.23;1.00;;;18.20;99.90;;;;;;5073773;28;20452;-80
2022/07/21 02:28:37;;;;;;;1.00;0.90;;;18.20;99.90;;;;;;5073668;28;20469;-80
2022/07/21 02:31:04;;;;;;;1.23;1.10;;;18.20;99.90;;;;;;5073626;28;20476;-81
2022/07/21 02:33:31;;;;;;;1.53;0.80;;;18.10;99.90;;;;;;5073684;28;20467;-80
2022/07/21 02:35:57;;;;;;;2.00;1.20;;;18.10;99.90;;;;;;5073658;28;20453;-80
2022/07/21 02:38:24;;;;;;;8.27;1.40;;;18.10;99.90;;;;;;5073318;28;20515;-80
2022/07/21 02:40:51;;;;;;;2.97;1.13;;;18.10;99.90;;;;;;5073277;28;20441;-80
2022/07/21 02:43:18;;;;;;;0.67;0.60;;;18.10;99.90;;;;;;5073312;28;20440;-80
2022/07/21 02:45:46;;;;;;;1.30;0.93;;;18.10;99.90;;;;;;5073524;28;20453;-80
2022/07/21 02:48:13;;;;;;;1.67;1.57;;;18.10;99.90;;;;;;5073180;28;20456;-80
2022/07/21 02:50:42;;;;;;;1.60;1.13;;;18.10;99.90;;;;;;5073408;28;20491;-80
2022/07/21 02:53:12;;;;;;;2.50;1.27;;;18.10;99.90;;;;;;5073457;28;20445;-80
2022/07/21 02:55:39;;;;;;;1.40;1.10;;;18.10;99.90;;;;;;5073420;28;20449;-80
2022/07/21 02:58:08;;;;;;;1.57;1.30;;;18.10;99.90;;;;;;5073337;28;20461;-80
2022/07/21 03:00:36;;;;;;;5.50;0.90;;;18.10;99.90;;;;;;5073369;28;20444;-80
2022/07/21 03:03:04;;;;;;;2.13;1.50;;;18.00;99.90;;;;;;5073073;28;20951;-80
2022/07/21 03:05:32;;;;;;;2.47;1.10;;;18.10;99.90;;;;;;5073374;28;20457;-80
2022/07/21 03:07:58;;;;;;;1.93;1.10;;;18.10;99.90;;;;;;5073228;28;20449;-80
2022/07/21 03:10:25;;;;;;;1.03;0.90;;;18.10;99.90;;;;;;5072896;28;21025;-80
2022/07/21 03:12:52;;;;;;;1.30;1.20;;;18.10;99.90;;;;;;5073239;28;20449;-80
2022/07/21 03:15:19;;;;;;;1.97;1.03;;;18.10;99.90;;;;;;5074443;28;20448;-80
2022/07/21 03:17:46;;;;;;;1.67;1.00;;;18.10;99.90;;;;;;5077330;28;20452;-80
2022/07/21 03:20:14;;;;;;;1.30;1.10;;;18.10;99.90;;;;;;5077351;28;20453;-80
2022/07/21 03:22:41;;;;;;;0.90;0.73;;;18.10;99.90;;;;;;5077254;28;20451;-80
2022/07/21 03:25:08;;;;;;;1.70;1.40;;;18.10;99.90;;;;;;5077262;28;20456;-81
2022/07/21 03:27:36;;;;;;;2.00;0.93;;;18.10;99.90;;;;;;5076863;28;20935;-80
2022/07/21 03:30:05;;;;;;;2.60;0.97;;;18.10;99.90;;;;;;5076679;28;20881;-81
2022/07/21 03:32:31;;;;;;;4.50;1.27;;;18.00;99.90;;;;;;5076694;28;20999;-80
2022/07/21 03:34:58;;;;;;;2.37;1.20;;;18.00;99.90;;;;;;5077028;28;20456;-80
2022/07/21 03:37:26;;;;;;;2.03;1.17;;;18.00;99.90;;;;;;5076765;28;20452;-80
2022/07/21 03:39:54;;;;;;;1.80;0.80;;;18.00;99.90;;;;;;5076700;28;20449;-81
2022/07/21 03:42:20;;;;;;;1.70;0.83;;;18.00;99.90;;;;;;5076937;28;20443;-81
2022/07/21 03:44:47;;;;;;;1.10;0.83;;;18.00;99.90;;;;;;5076842;28;20449;-81
2022/07/21 03:47:14;;;;;;;0.90;0.67;;;18.00;99.90;;;;;;5076800;28;20448;-81
2022/07/21 03:49:41;;;;;;;0.97;0.80;;;18.00;99.90;;;;;;5076367;28;20468;-80
2022/07/21 03:52:08;;;;;;;4.10;1.47;;;18.00;99.90;;;;;;5076587;28;20484;-81
2022/07/21 03:54:36;;;;;;;1.43;1.10;;;18.00;99.90;;;;;;5076649;28;20452;-80
2022/07/21 03:57:03;;;;;;;2.30;1.17;;;18.00;99.90;;;;;;5076295;28;20816;-80
2022/07/21 03:59:29;;;;;;;2.97;1.00;;;18.00;99.90;;;;;;5076276;28;20488;-81
2022/07/21 04:01:56;;;;;;;1.40;1.00;;;18.00;99.90;;;;;;5076521;28;20448;-80
2022/07/21 04:04:23;;;;;;;1.53;1.10;;;18.00;99.90;;;;;;5076482;28;20449;-80
2022/07/21 04:06:49;;;;;;;1.73;1.07;;;18.00;99.90;;;;;;5076158;28;20955;-80
2022/07/21 04:09:17;;;;;;;1.90;1.13;;;18.00;99.90;;;;;;5076341;28;20475;-81
2022/07/21 04:11:45;;;;;;;1.73;1.00;;;18.00;99.90;;;;;;5076271;28;20480;-81
2022/07/21 04:14:12;;;;;;;4.87;1.60;;;18.10;99.90;;;;;;5075973;28;20444;-81
2022/07/21 04:16:38;;;;;;;1.83;1.20;;;18.00;99.90;;;;;;5075941;28;20952;-81
2022/07/21 04:19:05;;;;;;;1.23;1.00;;;18.00;99.90;;;;;;5076147;28;20827;-81
2022/07/21 04:21:32;;;;;;;0.97;0.93;;;18.00;99.90;;;;;;5076127;28;20448;-81
2022/07/21 04:23:59;;;;;;;1.63;1.47;;;18.00;99.90;;;;;;5076125;28;20460;-80
2022/07/21 04:26:27;;;;;;;3.73;1.80;;;18.00;99.90;;;;;;5074989;28;20457;-81
2022/07/21 04:28:55;;;;;;;4.70;1.43;;;18.00;99.90;;;;;;5075433;28;20896;-81
2022/07/21 04:31:22;;;;;;;1.63;1.53;;;18.10;99.90;;;;;;5075887;28;20485;-81
2022/07/21 04:33:49;;;;;;;1.93;1.47;;;18.10;99.90;;;;;;5075963;28;20445;-87
2022/07/21 04:36:15;;;;;;;4.53;1.00;;;18.10;99.90;;;;;;5075916;28;20475;-80
2022/07/21 04:38:42;;;;;;;1.00;0.93;;;18.10;99.90;;;;;;5075380;28;20480;-80
2022/07/21 04:41:09;;;;;;;3.57;1.37;;;18.10;99.90;;;;;;5075851;28;20449;-80
2022/07/21 04:43:35;;;;;;;1.30;0.97;;;18.20;99.90;;;;;;5075718;28;20456;-80
2022/07/21 04:46:03;;;;;;;1.63;0.83;;;18.10;99.90;;;;;;5075704;28;20448;-81
2022/07/21 04:48:30;;;;;;;2.10;1.00;;;18.20;99.90;;;;;;5075338;28;20980;-81
2022/07/21 04:50:57;;;;;;;1.37;1.20;;;18.20;99.90;;;;;;5075528;28;20480;-80
2022/07/21 04:53:24;;;;;;;1.60;1.50;;;18.30;99.90;;;;;;5075591;28;20457;-81
2022/07/21 04:55:50;;;;;;;2.37;1.67;;;18.30;99.90;;;;;;5075559;28;20449;-80
2022/07/21 04:58:17;;;;;;;4.13;1.63;;;18.30;99.90;;;;;;5075455;28;20507;-80
2022/07/21 05:00:44;;;;;;;3.33;1.23;;;18.30;99.90;;;;;;5075488;28;20456;-81
2022/07/21 05:03:13;;;;;;;1.73;1.00;;;18.30;99.90;;;;;;5075142;28;21013;-80
2022/07/21 05:05:40;;;;;;;1.47;1.37;;;18.40;99.90;;;;;;5075350;28;20445;-81
2022/07/21 05:08:07;;;;;;;2.87;1.63;;;18.30;99.90;;;;;;5075202;28;20472;-81
2022/07/21 05:10:34;;;;;;;4.00;1.90;;;18.40;99.90;;;;;;5074947;28;20971;-81
2022/07/21 05:13:00;;;;;;;3.80;1.47;;;18.40;99.90;;;;;;5075149;28;20488;-81
2022/07/21 05:15:27;;;;;;;2.20;2.00;;;18.40;99.90;;;;;;5075142;28;20805;-82
2022/07/21 05:17:54;;;;;;;3.53;2.10;;;18.50;99.90;;;;;;5075043;28;20456;-81
2022/07/21 05:20:22;;;;;;;1.47;1.10;;;18.60;99.90;;;;;;5075106;28;20464;-81
2022/07/21 05:22:49;;;;;;;1.10;0.90;;;18.60;99.90;;;;;;5074684;28;20806;-81
2022/07/21 05:25:16;;;;;;;1.63;1.27;;;18.70;99.90;;;;;;5074954;28;20468;-81
2022/07/21 05:27:42;;;;;;;1.63;0.90;;;18.80;99.90;;;;;;5074895;28;20448;-81
2022/07/21 05:30:11;;;;;;;5.10;2.63;;;18.80;99.90;;;;;;5074823;28;20451;-81
2022/07/21 05:32:38;;;;;;;2.97;1.43;;;18.80;99.90;;;;;;5074767;28;20480;-81
2022/07/21 05:35:10;;;;;;;2.83;1.60;;;18.90;99.90;;;;;;5074752;28;20449;-81
2022/07/21 05:37:39;;;;;;;1.47;1.37;;;18.90;99.90;;;;;;5074571;28;20626;-81
2022/07/21 05:40:07;;;;;;;1.43;1.20;;;19.00;99.90;;;;;;5074351;28;21007;-81
2022/07/21 05:42:33;;;;;;;3.07;1.63;;;19.00;99.90;;;;;;5074605;28;20448;-81
2022/07/21 05:45:00;;;;;;;3.90;1.37;;;19.00;99.90;;;;;;5074553;28;20449;-81
2022/07/21 05:47:27;;;;;;;1.57;1.43;;;19.10;99.90;;;;;;5075317;28;20451;-81
2022/07/21 05:49:54;;;;;;;2.43;1.63;;;19.10;99.90;;;;;;5074102;28;20984;-81
2022/07/21 05:52:21;;;;;;;3.50;1.50;;;19.20;99.90;;;;;;5074365;28;20476;-81
2022/07/21 05:54:49;;;;;;;3.47;2.03;;;19.30;99.90;;;;;;5074368;28;20480;-81
2022/07/21 05:57:16;;;;;;;2.83;1.20;;;19.40;99.90;;;;;;5074013;28;21013;-82
2022/07/21 05:59:43;;;;;;;3.23;1.87;;;19.40;99.90;;;;;;5074436;28;20898;-81
2022/07/21 06:02:09;;;;;;;1.97;1.50;;;19.50;99.90;;;;;;5073910;28;20908;-82
2022/07/21 06:04:36;;;;;;;4.83;1.93;;;19.50;99.90;;;;;;5074152;28;20453;-82
2022/07/21 06:07:03;;;;;;;3.27;2.97;;;19.50;99.90;;;;;;5074068;28;20456;-82
2022/07/21 06:09:30;;;;;;;2.20;1.30;;;19.60;99.90;;;;;;5074000;28;20468;-82
2022/07/21 06:11:58;;;;;;;2.67;1.50;;;19.70;99.90;;;;;;5073629;28;20999;-82
2022/07/21 06:14:25;;;;;;;5.03;1.63;;;19.70;99.90;;;;;;5074015;28;20444;-82
2022/07/21 06:16:51;;;;;;;2.60;1.70;;;19.80;99.90;;;;;;5073903;28;20452;-82
2022/07/21 06:19:19;;;;;;;2.03;1.70;;;19.90;99.90;;;;;;5073786;28;20461;-82
2022/07/21 06:21:45;;;;;;;4.17;1.93;;;20.00;99.90;;;;;;5073870;28;20445;-82
2022/07/21 06:24:12;;;;;;;3.47;1.70;;;20.10;99.90;;;;;;5073817;28;20449;-82
2022/07/21 06:26:39;;;;;;;3.40;2.30;;;20.20;99.90;;;;;;5073846;28;20799;-82
2022/07/21 06:29:08;;;;;;;3.00;1.80;;;20.30;99.90;;;;;;5073421;28;21006;-83
2022/07/21 06:31:35;;;;;;;4.57;2.30;;;20.40;99.90;;;;;;5073429;28;20476;-83
2022/07/21 06:34:01;;;;;;;2.57;1.70;;;20.50;99.90;;;;;;5073741;28;20444;-83
2022/07/21 06:36:29;;;;;;;1.93;1.83;;;20.60;99.90;;;;;;5073814;28;20441;-83
2022/07/21 06:38:56;;;;;;;5.00;1.53;;;20.80;99.90;;;;;;5073271;28;20524;-83
2022/07/21 06:41:22;;;;;;;4.93;2.00;;;20.90;99.90;;;;;;5073631;28;20502;-83
2022/07/21 06:43:49;;;;;;;2.70;2.43;;;21.00;99.90;;;;;;5073401;28;20924;-83
2022/07/21 06:46:18;;;;;;;3.00;1.47;;;21.00;99.90;;;;;;5073366;28;20437;-84
2022/07/21 06:48:45;;;;;;;3.20;2.40;;;21.10;99.90;;;;;;5073225;28;20486;-84
2022/07/21 06:51:12;;;;;;;3.53;1.60;;;21.20;99.90;;;;;;5072659;28;20476;-84
2022/07/21 06:53:39;;;;;;;2.33;1.80;;;21.20;99.90;;;;;;5073504;28;20436;-84
2022/07/21 06:56:06;;;;;;;1.93;1.30;;;21.20;99.90;;;;;;5073158;28;20455;-84
2022/07/21 06:58:34;;;;;;;2.90;1.70;;;21.30;99.90;;;;;;5073426;28;20874;-84
2022/07/21 07:01:01;;;;;;;3.80;3.20;;;21.20;99.90;;;;;;5073433;28;20440;-84
2022/07/21 07:03:29;;;;;;;2.87;2.00;;;21.40;99.90;;;;;;5073492;28;20447;-84
2022/07/21 07:05:56;;;;;;;2.13;1.83;;;21.40;99.90;;;;;;5073436;28;20963;-84
2022/07/21 07:08:23;;;;;;;2.33;2.00;;;21.40;99.90;;;;;;5073326;28;20472;-84
2022/07/21 07:10:49;;;;;;;1.90;1.77;;;21.50;99.90;;;;;;5073383;28;20440;-84
2022/07/21 07:13:17;;;;;;;1.50;1.40;;;21.40;99.90;;;;;;5073316;28;20472;-84
2022/07/21 07:15:45;;;;;;;3.10;1.80;;;21.50;99.90;;;;;;5072997;28;20462;-84
2022/07/21 07:18:12;;;;;;;5.60;1.63;;;21.60;99.90;;;;;;5072946;28;20543;-85
2022/07/21 07:20:40;;;;;;;2.80;1.50;;;21.80;99.90;;;;;;5073018;28;20439;-85
2022/07/21 07:23:07;;;;;;;2.47;2.27;;;21.90;99.90;;;;;;5073237;28;20429;-85
2022/07/21 07:25:34;;;;;;;3.03;1.50;;;22.00;99.90;;;;;;5073204;28;20532;-85
2022/07/21 07:28:01;;;;;;;2.83;2.10;;;22.20;99.90;;;;;;5072740;28;20487;-85
2022/07/21 07:30:28;;;;;;;2.80;2.33;;;22.40;99.90;;;;;;5073086;28;20459;-85
2022/07/21 07:32:55;;;;;;;2.50;1.67;;;22.50;99.90;;;;;;5072718;28;20483;-86
2022/07/21 07:35:22;;;;;;;2.53;2.30;;;22.70;99.90;;;;;;5073119;28;20498;-85
2022/07/21 07:37:50;;;;;;;3.03;2.07;;;22.70;99.90;;;;;;5072753;28;20324;-85
2022/07/21 07:40:22;;;;;;;3.60;1.87;;;22.70;99.90;;;;;;5073123;28;20210;-85
2022/07/21 07:42:49;;;;;;;3.23;2.03;;;22.60;99.90;;;;;;5073008;28;20440;-86
2022/07/21 07:45:16;;;;;;;3.27;2.13;;;22.70;99.90;;;;;;5072981;28;20211;-86
2022/07/21 07:47:43;;;;;;;5.60;2.10;;;22.70;99.90;;;;;;5072707;28;20678;-86
2022/07/21 07:50:12;;;;;;;1.93;1.77;;;22.80;99.90;;;;;;5072946;28;20202;-85
2022/07/21 07:52:40;;;;;;;2.03;1.83;;;22.70;99.90;;;;;;5072498;28;20601;-86
2022/07/21 07:55:10;;;;;;;4.80;1.70;;;22.60;99.90;;;;;;5072911;28;20210;-86
2022/07/21 07:57:38;;;;;;;2.20;1.53;;;22.40;99.90;;;;;;5073203;28;20206;-86
2022/07/21 08:00:07;;;;;;;2.40;1.50;;;22.30;99.90;;;;;;5073061;28;20463;-85
2022/07/21 08:02:34;;;;;;;2.97;1.80;;;22.20;99.90;;;;;;5075836;28;20440;-85
2022/07/21 08:05:01;;;;;;;4.17;2.10;;;22.10;99.90;;;;;;5076519;28;20202;-85
2022/07/21 08:07:28;;;;;;;2.17;1.83;;;22.30;99.90;;;;;;5076449;28;20444;-85
2022/07/21 08:09:54;;;;;;;2.13;1.53;;;22.40;99.90;;;;;;5076376;28;20545;-85
2022/07/21 08:12:23;;;;;;;3.07;2.00;;;22.40;99.90;;;;;;5076331;28;20484;-85
2022/07/21 08:14:49;;;;;;;5.13;1.87;;;22.40;99.90;;;;;;5075902;28;20448;-85
2022/07/21 08:17:17;;;;;;;3.17;1.40;;;22.40;99.90;;;;;;5076152;28;20969;-85
2022/07/21 08:19:44;;;;;;;1.90;1.50;;;22.70;99.90;;;;;;5075940;28;20971;-86
2022/07/21 08:22:10;;;;;;;2.67;2.03;;;22.90;99.90;;;;;;5076589;28;20781;-86
2022/07/21 08:24:37;;;;;;;2.60;2.00;;;23.20;99.90;;;;;;5076240;28;20198;-85
2022/07/21 08:27:04;;;;;;;1.45;1.20;;;23.20;99.90;;;;;;5075921;28;20208;-85
2022/07/21 08:29:32;;;;;;;2.20;2.00;;;23.10;99.90;;;;;;5076144;28;20222;-86
2022/07/21 08:31:59;;;;;;;1.50;1.40;;;23.00;99.90;;;;;;5076060;28;20201;-86
2022/07/21 08:34:27;;;;;;;3.87;2.20;;;23.10;99.90;;;;;;5076042;28;20294;-84
2022/07/21 08:36:54;;;;;;;2.67;1.40;;;23.30;99.90;;;;;;5075955;28;20209;-87
2022/07/21 08:39:21;;;;;;;2.17;1.97;;;23.40;99.90;;;;;;5075519;28;20311;-85
2022/07/21 08:41:48;;;;;;;1.97;1.40;;;23.40;99.90;;;;;;5075598;28;20213;-85
2022/07/21 08:44:15;;;;;;;1.80;1.70;;;23.40;99.90;;;;;;5075637;28;20206;-85
2022/07/21 08:46:43;;;;;;;2.30;1.45;;;23.30;99.90;;;;;;5075787;28;20209;-84
2022/07/21 08:49:11;;;;;;;3.30;1.77;;;23.50;99.90;;;;;;5075341;28;20720;-84
2022/07/21 08:51:38;;;;;;;3.22;1.58;;;23.80;99.90;;;;;;5075397;28;20537;-84
2022/07/21 08:54:05;;;;;;;1.65;1.40;;;24.00;99.90;;;;;;5075661;28;20210;-84
2022/07/21 08:56:32;;;;;;;2.35;1.48;;;24.30;99.90;;;;;;5075671;28;20190;-84
2022/07/21 08:58:59;;;;;;;2.35;2.25;;;24.60;99.90;;;;;;5075430;28;20600;-84
2022/07/21 09:01:26;;;;;;;2.10;1.33;;;24.70;99.90;;;;;;5075587;28;20557;-84
2022/07/21 09:03:55;;;;;;;1.80;1.30;;;24.90;99.90;;;;;;5075431;28;20209;-84
2022/07/21 09:06:22;;;;;;;1.33;1.23;;;24.80;99.90;;;;;;5075955;28;20210;-84
2022/07/21 09:08:50;;;;;;;2.22;1.60;;;24.80;99.90;;;;;;5074975;28;20595;-84
2022/07/21 09:11:20;;;;;;;1.90;1.80;;;24.80;99.90;;;;;;5075359;28;20228;-84
2022/07/21 09:13:51;;;;;;;2.03;1.80;;;24.90;99.90;;;;;;5074466;28;20222;-84
2022/07/21 09:16:34;;;;;;;2.15;1.67;;;25.00;99.90;;;;;;5074954;28;20193;-84
2022/07/21 09:19:03;;;;;;;1.35;1.25;;;25.20;99.90;;;;;;5075013;28;20214;-84
2022/07/21 09:21:32;;;;;;;1.38;1.10;;;25.40;99.90;;;;;;5074745;28;20573;-84
2022/07/21 09:24:16;;;;;;;3.20;1.67;;;25.60;99.90;;;;;;5074728;28;20217;-84
2022/07/21 09:27:11;;;;;;;1.63;1.52;;;25.70;99.90;;;;;;5074760;28;20186;-84
2022/07/21 09:29:41;;;;;;;1.98;1.85;;;25.80;99.90;;;;;;5061136;28;20695;-84
2022/07/21 09:32:19;;;;;;;0.88;0.88;;;26.00;99.90;;;;;;5074835;28;20194;-84
2022/07/21 09:34:49;;;;;;;2.53;1.73;;;26.10;99.90;;;;;;5074542;28;20668;-84
2022/07/21 09:37:17;;;;;;;1.70;1.58;;;26.10;99.90;;;;;;5074523;28;20205;-83
2022/07/21 09:39:46;;;;;;;1.60;1.17;;;26.10;99.90;;;;;;5074638;28;20271;-84
2022/07/21 09:42:18;;;;;;;1.23;1.13;;;26.00;99.90;;;;;;5074643;28;20202;-84
2022/07/21 09:44:47;;;;;;;2.17;1.15;;;25.80;99.90;;;;;;5074586;28;20186;-84
2022/07/21 09:47:16;;;;;;;1.73;1.13;;;25.50;99.90;;;;;;5074593;28;20202;-84
2022/07/21 09:49:44;;;;;;;1.17;1.02;;;25.30;99.90;;;;;;5074493;28;20235;-84
2022/07/21 09:52:30;;;;;;;1.67;1.20;;;25.20;99.90;;;;;;5074246;28;20673;-84
2022/07/21 09:54:58;;;;;;;2.50;1.40;;;25.00;99.90;;;;;;5075034;28;20189;-84
2022/07/21 09:57:26;;;;;;;2.55;0.95;;;24.90;99.90;;;;;;5074341;28;20201;-84
2022/07/21 09:59:53;;;;;;;2.70;1.40;;;24.70;99.90;;;;;;5074266;28;20222;-84
2022/07/21 10:02:22;;;;;;;1.08;1.08;;;24.60;99.90;;;;;;5074295;28;20202;-84
2022/07/21 10:04:57;;;;;;;1.10;1.00;;;24.60;99.90;;;;;;5074327;28;20190;-84
2022/07/21 10:07:27;;;;;;;1.40;1.30;;;24.70;99.90;;;;;;5074254;28;20193;-84
2022/07/21 10:09:54;;;;;;;1.88;1.40;;;24.70;99.90;;;;;;5074057;28;20229;-84
2022/07/21 10:12:22;;;;;;;1.67;1.23;;;24.60;99.90;;;;;;5073959;28;20210;-84
2022/07/21 10:14:49;;;;;;;1.25;1.10;;;24.60;99.90;;;;;;5074507;28;20300;-79
2022/07/21 10:17:19;;;;;;;1.42;1.00;;;24.40;99.90;;;;;;5074495;28;20233;-79
2022/07/21 10:20:05;;;;;;;2.97;0.90;;;24.40;99.90;;;;;;5074557;28;20226;-83
2022/07/21 10:22:48;;;;;;;0.70;0.70;;;24.60;99.90;;;;;;5074486;28;20579;-79
2022/07/21 10:25:16;;;;;;;1.63;1.05;;;24.90;99.90;;;;;;5073935;28;20196;-83
2022/07/21 10:28:13;;;;;;;1.10;1.00;;;25.20;99.90;;;;;;5074637;28;20217;-77
2022/07/21 10:30:41;;;;;;;1.45;1.20;;;25.50;99.90;;;;;;5074433;28;20186;-84
2022/07/21 10:33:09;;;;;;;1.33;1.23;;;25.60;99.90;;;;;;5074121;28;20245;-84
2022/07/21 10:35:41;;;;;;;2.15;1.17;;;25.90;99.90;;;;;;5074121;28;20201;-84
2022/07/21 10:38:27;;;;;;;1.40;1.13;;;26.10;99.90;;;;;;5073251;28;20552;-77
2022/07/21 10:40:54;;;;;;;1.58;1.48;;;26.30;99.90;;;;;;5073686;28;20252;-77
2022/07/21 10:43:43;;;;;;;1.50;1.17;;;26.20;99.90;;;;;;5073604;28;20198;-77
2022/07/21 10:46:38;;;;;;;2.10;1.27;;;26.50;99.90;;;;;;5073819;28;20187;-78
2022/07/21 10:49:07;;;;;;;1.10;0.98;;;26.70;99.90;;;;;;5073382;28;20218;-78
2022/07/21 10:51:36;;;;;;;1.52;1.20;;;26.80;99.90;;;;;;5074104;28;20213;-77
2022/07/21 10:54:25;;;;;;;1.30;1.20;;;26.90;99.90;;;;;;5073778;28;20688;-78
2022/07/21 10:57:27;;;;;;;1.45;1.10;;;26.90;99.90;;;;;;5074767;28;20202;-83
2022/07/21 11:00:24;;;;;;;1.35;1.23;;;26.90;99.90;;;;;;5074385;28;20263;-77
2022/07/21 11:02:54;;;;;;;1.00;0.90;;;26.70;99.90;;;;;;5073009;28;20681;-77
2022/07/21 11:05:22;;;;;;;3.78;1.25;;;26.60;99.90;;;;;;5074241;28;20210;-84
2022/07/21 11:08:14;;;;;;;1.60;1.50;;;26.40;99.90;;;;;;5073422;28;20202;-78
2022/07/21 11:10:44;;;;;;;1.05;0.95;;;26.30;99.90;;;;;;5065126;28;20206;-78
2022/07/21 11:13:12;;;;;;;1.15;1.02;;;26.70;99.90;;;;;;5073432;28;20271;-77
2022/07/21 11:15:47;;;;;;;1.60;1.10;;;27.20;99.90;;;;;;5072946;28;20592;-77
2022/07/21 11:18:17;;;;;;;0.80;0.80;;;27.60;99.90;;;;;;5073536;28;20220;-77
2022/07/21 11:20:45;;;;;;;1.95;1.20;;;27.80;99.90;;;;;;5073479;28;20194;-77
2022/07/21 11:23:12;;;;;;;2.10;1.48;;;27.70;99.90;;;;;;5073063;28;20252;-77
2022/07/21 11:25:39;;;;;;;1.30;1.20;;;27.40;99.90;;;;;;5073038;28;20209;-77
2022/07/21 11:28:18;;;;;;;1.95;1.25;;;27.30;99.90;;;;;;5073089;28;20252;-77
2022/07/21 11:30:45;;;;;;;1.85;1.30;;;27.10;99.90;;;;;;5073528;28;20197;-84
2022/07/21 11:33:22;;;;;;;1.15;0.90;;;27.10;99.90;;;;;;5072938;28;20598;-84
2022/07/21 11:35:49;;;;;;;1.33;1.27;;;27.20;99.90;;;;;;5073996;28;20292;-83
2022/07/21 11:38:16;;;;;;;1.45;1.30;;;27.30;99.90;;;;;;5078263;28;20238;-77
2022/07/21 11:40:43;;;;;;;0.98;0.98;;;27.40;99.90;;;;;;5077140;28;20212;-77
2022/07/21 11:43:10;;;;;;;1.02;1.00;;;27.50;99.90;;;;;;5076683;28;20202;-77
2022/07/21 11:45:39;;;;;;;3.30;1.50;;;27.60;99.90;;;;;;5076615;28;20209;-77
2022/07/21 11:48:06;;;;;;;1.30;1.20;;;27.60;99.90;;;;;;5076382;28;20724;-77
2022/07/21 11:50:33;;;;;;;1.45;1.00;;;27.70;99.90;;;;;;5076779;28;20225;-77
2022/07/21 11:53:02;;;;;;;5.70;1.92;;;27.80;99.60;;;;;;5076481;28;20206;-77
2022/07/21 11:55:29;;;;;;;0.80;0.77;;;28.00;98.70;;;;;;5076705;28;20202;-76
2022/07/21 11:57:56;;;;;;;1.75;1.50;;;27.90;98.90;;;;;;5076713;28;20217;-77
2022/07/21 12:00:26;;;;;;;1.30;1.20;;;27.90;98.70;;;;;;5076994;28;20232;-78
2022/07/21 12:03:06;;;;;;;1.20;1.00;;;27.90;98.70;;;;;;5076948;28;20229;-83
2022/07/21 12:05:32;;;;;;;0.93;0.93;;;27.80;99.90;;;;;;5076241;28;20197;-83
2022/07/21 12:07:59;;;;;;;1.10;0.98;;;27.70;97.20;;;;;;5076423;28;20197;-83
2022/07/21 12:10:29;;;;;;;0.80;0.80;;;27.70;97.80;;;;;;5076460;28;20198;-83
2022/07/21 12:13:01;;;;;;;1.05;0.95;;;27.60;98.30;;;;;;5076076;28;20237;-83
2022/07/21 12:15:31;;;;;;;0.85;0.80;;;27.60;97.50;;;;;;5076673;28;20191;-84
2022/07/21 12:18:01;;;;;;;4.15;1.40;;;27.60;97.10;;;;;;5076450;28;20194;-83
2022/07/21 12:20:30;;;;;;;1.08;0.98;;;27.40;96.60;;;;;;5076337;28;20190;-84
2022/07/21 12:22:59;;;;;;;1.10;1.00;;;27.40;96.80;;;;;;5076191;28;20202;-83
2022/07/21 12:25:34;;;;;;;1.00;0.80;;;27.50;97.80;;;;;;5076202;28;20292;-83
2022/07/21 12:28:02;;;;;;;1.10;1.00;;;27.70;95.80;;;;;;5075912;28;20680;-77
2022/07/21 12:30:38;;;;;;;1.20;1.08;;;27.70;95.90;;;;;;5076197;28;20669;-79
2022/07/21 12:33:09;;;;;;;1.48;1.20;;;27.60;95.20;;;;;;5076045;28;20193;-78
2022/07/21 12:35:36;;;;;;;1.00;0.90;;;27.60;96.10;;;;;;5076541;28;20271;-78
2022/07/21 12:38:09;;;;;;;1.27;1.17;;;27.50;94.80;;;;;;5075448;28;20723;-79
2022/07/21 12:40:39;;;;;;;1.00;1.00;;;27.50;96.40;;;;;;5076331;28;20260;-78
2022/07/21 12:43:12;;;;;;;1.27;0.90;;;27.60;93.70;;;;;;5075563;28;20212;-78
2022/07/21 12:45:55;;;;;;;1.08;0.98;;;27.50;94.70;;;;;;5075895;28;20654;-83
2022/07/21 12:48:27;;;;;;;1.17;1.08;;;27.30;93.60;;;;;;5074287;28;20705;-83
2022/07/21 12:51:07;;;;;;;1.60;1.50;;;27.20;92.50;;;;;;5075887;28;20565;-83
2022/07/21 12:53:35;;;;;;;1.02;0.80;;;27.20;93.60;;;;;;5076414;28;20206;-83
2022/07/21 12:56:02;;;;;;;0.95;0.90;;;27.20;94.70;;;;;;5075630;28;20205;-83
2022/07/21 12:58:29;;;;;;;1.50;1.02;;;27.20;95.20;;;;;;5075534;28;20233;-83